createdAt,value
2023-02-17T00:01:22.707Z,2.80
2023-02-17T00:03:50.845Z,2.83
2023-02-17T00:06:21.902Z,2.89
2023-02-17T00:08:50.095Z,3.07
2023-02-17T00:11:17.963Z,3.15
2023-02-17T00:13:45.240Z,3.17
2023-02-17T00:16:25.280Z,3.26
2023-02-17T00:18:55.453Z,3.20
2023-02-17T00:21:24.769Z,3.22
2023-02-17T00:23:52.604Z,3.37
2023-02-17T00:26:20.895Z,3.39
2023-02-17T00:28:48.703Z,3.41
2023-02-17T00:31:23.551Z,3.29
2023-02-17T00:33:50.664Z,3.37
2023-02-17T00:36:19.838Z,3.42
2023-02-17T00:38:53.629Z,3.34
2023-02-17T00:41:21.132Z,3.29
2023-02-17T00:43:48.753Z,3.27
2023-02-17T00:46:17.267Z,3.28
2023-02-17T00:48:44.220Z,3.39
2023-02-17T00:51:12.216Z,3.36
2023-02-17T00:53:39.278Z,3.36
2023-02-17T00:56:07.300Z,3.39
2023-02-17T00:58:35.392Z,3.40
2023-02-17T01:01:02.851Z,3.42
2023-02-17T01:03:29.711Z,3.35
2023-02-17T01:05:56.804Z,3.48
2023-02-17T01:08:25.546Z,3.30
2023-02-17T01:10:53.403Z,3.24
2023-02-17T01:13:20.668Z,3.18
2023-02-17T01:15:50.591Z,3.22
2023-02-17T01:18:19.144Z,3.33
2023-02-17T01:20:46.247Z,3.22
2023-02-17T01:23:14.089Z,3.20
2023-02-17T01:25:44.122Z,3.15
2023-02-17T01:28:20.332Z,3.13
2023-02-17T01:30:48.879Z,3.13
2023-02-17T01:33:15.755Z,3.02
2023-02-17T01:35:42.855Z,3.08
2023-02-17T01:38:09.822Z,3.12
2023-02-17T01:40:49.488Z,3.20
2023-02-17T01:43:17.778Z,3.14
2023-02-17T01:45:53.673Z,3.15
2023-02-17T01:48:32.366Z,3.19
2023-02-17T01:51:05.135Z,3.19
2023-02-17T01:53:40.587Z,3.23
2023-02-17T01:56:08.694Z,3.32
2023-02-17T01:58:35.634Z,3.42
2023-02-17T02:01:05.082Z,3.49
2023-02-17T02:03:36.311Z,3.46
2023-02-17T02:06:11.300Z,3.39
2023-02-17T02:09:03.951Z,3.44
2023-02-17T02:11:33.438Z,3.48
2023-02-17T02:14:00.876Z,3.39
2023-02-17T02:16:36.591Z,3.36
2023-02-17T02:19:21.422Z,3.33
2023-02-17T02:22:26.188Z,3.25
2023-02-17T02:25:31.108Z,3.13
2023-02-17T02:28:33.248Z,3.17
2023-02-17T02:31:00.010Z,3.07
2023-02-17T02:33:43.365Z,3.03
2023-02-17T02:36:20.607Z,3.01
2023-02-17T02:39:02.815Z,3.02
2023-02-17T02:41:53.569Z,3.03
2023-02-17T02:44:21.735Z,3.11
2023-02-17T02:47:03.998Z,3.00
2023-02-17T02:49:33.712Z,2.96
2023-02-17T02:52:41.796Z,2.97
2023-02-17T02:55:26.827Z,3.00
2023-02-17T02:58:15.333Z,2.97
2023-02-17T03:01:14.138Z,2.93
2023-02-17T03:03:53.776Z,2.95
2023-02-17T03:06:33.000Z,2.89
2023-02-17T03:09:09.151Z,2.75
2023-02-17T03:11:40.355Z,2.53
2023-02-17T03:14:13.218Z,2.53
2023-02-17T03:16:42.285Z,2.46
2023-02-17T03:19:10.139Z,2.39
2023-02-17T03:21:48.037Z,2.30
2023-02-17T03:24:15.052Z,2.54
2023-02-17T03:26:42.133Z,2.54
2023-02-17T03:29:09.335Z,2.40
2023-02-17T03:31:36.967Z,2.31
2023-02-17T03:34:04.094Z,2.33
2023-02-17T03:36:31.214Z,2.37
2023-02-17T03:38:58.853Z,2.39
2023-02-17T03:41:27.007Z,2.47
2023-02-17T03:43:53.833Z,2.48
2023-02-17T03:46:22.449Z,2.59
2023-02-17T03:48:49.260Z,2.67
2023-02-17T03:51:18.938Z,2.73
2023-02-17T03:53:46.230Z,2.84
2023-02-17T03:56:14.081Z,2.88
2023-02-17T03:58:42.081Z,2.96
2023-02-17T04:01:11.378Z,3.04
2023-02-17T04:03:40.755Z,3.16
2023-02-17T04:06:09.468Z,3.34
2023-02-17T04:08:37.130Z,3.46
2023-02-17T04:11:07.060Z,3.53
2023-02-17T04:13:36.965Z,3.65
2023-02-17T04:16:05.660Z,3.74
2023-02-17T04:18:32.950Z,3.76
2023-02-17T04:21:00.621Z,3.73
2023-02-17T04:23:27.766Z,3.77
2023-02-17T04:25:54.915Z,3.73
2023-02-17T04:28:22.317Z,3.75
2023-02-17T04:30:52.492Z,3.71
2023-02-17T04:33:19.425Z,3.67
2023-02-17T04:35:47.615Z,3.69
2023-02-17T04:38:14.445Z,3.72
2023-02-17T04:40:41.998Z,3.66
2023-02-17T04:43:09.234Z,3.65
2023-02-17T04:45:37.426Z,3.49
2023-02-17T04:48:04.710Z,3.26
2023-02-17T04:50:31.491Z,3.26
2023-02-17T04:53:01.166Z,3.26
2023-02-17T04:55:29.681Z,3.34
2023-02-17T04:57:56.886Z,3.39
2023-02-17T05:00:23.801Z,3.38
2023-02-17T05:02:53.559Z,3.37
2023-02-17T05:05:21.123Z,3.39
2023-02-17T05:07:50.524Z,3.40
2023-02-17T05:10:18.765Z,3.48
2023-02-17T05:12:46.848Z,3.58
2023-02-17T05:15:13.691Z,3.74
2023-02-17T05:17:40.884Z,3.54
2023-02-17T05:20:08.938Z,3.85
2023-02-17T05:22:36.088Z,3.75
2023-02-17T05:25:03.587Z,3.63
2023-02-17T05:27:31.075Z,3.52
2023-02-17T05:29:57.890Z,3.60
2023-02-17T05:32:27.878Z,3.73
2023-02-17T05:34:55.081Z,3.65
2023-02-17T05:37:22.490Z,3.76
2023-02-17T05:39:49.340Z,3.67
2023-02-17T05:42:16.398Z,3.65
2023-02-17T05:44:44.677Z,3.57
2023-02-17T05:47:11.705Z,3.50
2023-02-17T05:49:41.435Z,3.42
2023-02-17T05:52:08.565Z,3.44
2023-02-17T05:54:35.346Z,3.43
2023-02-17T05:57:03.855Z,3.40
2023-02-17T05:59:31.966Z,3.45
2023-02-17T06:02:02.177Z,3.46
2023-02-17T06:04:29.394Z,3.52
2023-02-17T06:06:58.759Z,3.49
2023-02-17T06:09:29.321Z,3.58
2023-02-17T06:11:56.995Z,3.63
2023-02-17T06:14:23.833Z,3.68
2023-02-17T06:16:50.933Z,3.92
2023-02-17T06:19:17.694Z,4.07
2023-02-17T06:21:46.229Z,4.18
2023-02-17T06:24:12.981Z,4.11
2023-02-17T06:26:40.039Z,4.03
2023-02-17T06:29:09.550Z,3.94
2023-02-17T06:31:36.770Z,3.94
2023-02-17T06:34:06.409Z,4.07
2023-02-17T06:36:33.858Z,4.24
2023-02-17T06:39:03.528Z,4.30
2023-02-17T06:41:30.917Z,4.36
2023-02-17T06:43:57.685Z,4.25
2023-02-17T06:46:24.872Z,4.16
2023-02-17T06:48:51.683Z,4.16
2023-02-17T06:51:21.593Z,4.19
2023-02-17T06:53:48.392Z,4.20
2023-02-17T06:56:15.440Z,4.25
2023-02-17T06:58:42.195Z,4.27
2023-02-17T07:01:17.268Z,4.33
2023-02-17T07:03:44.344Z,4.37
2023-02-17T07:06:11.417Z,4.38
2023-02-17T07:08:39.293Z,4.40
2023-02-17T07:11:07.916Z,4.48
2023-02-17T07:13:35.386Z,4.53
2023-02-17T07:16:02.654Z,4.57
2023-02-17T07:18:29.730Z,4.58
2023-02-17T07:20:57.313Z,4.56
2023-02-17T07:23:24.108Z,4.56
2023-02-17T07:25:51.190Z,4.61
2023-02-17T07:28:18.051Z,4.71
2023-02-17T07:30:45.434Z,4.77
2023-02-17T07:33:12.618Z,4.78
2023-02-17T07:35:46.537Z,4.82
2023-02-17T07:38:13.395Z,4.93
2023-02-17T07:40:40.981Z,4.95
2023-02-17T07:43:10.850Z,5.04
2023-02-17T07:45:38.194Z,5.08
2023-02-17T07:48:07.881Z,5.14
2023-02-17T07:50:34.970Z,5.40
2023-02-17T07:53:01.793Z,5.76
2023-02-17T07:55:28.898Z,5.56
2023-02-17T07:57:59.941Z,5.62
2023-02-17T08:00:28.091Z,5.65
2023-02-17T08:02:55.944Z,5.80
2023-02-17T08:05:23.062Z,5.95
2023-02-17T08:08:09.867Z,5.97
2023-02-17T08:10:59.788Z,6.12
2023-02-17T08:13:27.761Z,6.20
2023-02-17T08:15:54.901Z,6.53
2023-02-17T08:18:21.678Z,6.65
2023-02-17T08:20:50.440Z,6.68
2023-02-17T08:23:17.262Z,6.89
2023-02-17T08:25:44.586Z,7.39
2023-02-17T08:28:12.219Z,7.68
2023-02-17T08:30:39.675Z,7.96
2023-02-17T08:33:07.018Z,8.23
2023-02-17T08:35:34.071Z,8.45
2023-02-17T08:38:00.874Z,8.46
2023-02-17T08:40:29.090Z,8.45
2023-02-17T08:42:55.927Z,8.49
2023-02-17T08:45:23.966Z,8.34
2023-02-17T08:47:51.069Z,8.47
2023-02-17T08:50:20.016Z,8.68
2023-02-17T08:52:47.481Z,8.79
2023-02-17T08:55:15.215Z,8.94
2023-02-17T08:57:42.124Z,9.03
2023-02-17T09:00:10.936Z,9.16
2023-02-17T09:02:37.765Z,9.40
2023-02-17T09:05:08.165Z,9.64
2023-02-17T09:07:35.004Z,9.82
2023-02-17T09:10:04.800Z,10.16
2023-02-17T09:12:31.723Z,10.55
2023-02-17T09:14:58.831Z,10.90
2023-02-17T09:17:26.061Z,11.15
2023-02-17T09:19:53.279Z,11.04
2023-02-17T09:22:31.657Z,11.00
2023-02-17T09:24:59.596Z,11.52
2023-02-17T09:27:26.438Z,11.16
2023-02-17T09:29:53.498Z,11.70
2023-02-17T09:32:21.458Z,11.97
2023-02-17T09:34:50.090Z,12.30
2023-02-17T09:37:17.747Z,11.91
2023-02-17T09:39:45.996Z,12.15
2023-02-17T09:42:20.816Z,11.92
2023-02-17T09:44:52.710Z,11.76
2023-02-17T09:47:25.670Z,11.55
2023-02-17T09:50:03.677Z,10.96
2023-02-17T09:52:40.006Z,11.05
2023-02-17T09:55:25.079Z,11.32
2023-02-17T09:58:14.551Z,11.28
2023-02-17T10:01:00.511Z,11.25
2023-02-17T10:03:39.695Z,11.20
2023-02-17T10:06:10.138Z,11.04
2023-02-17T10:08:54.561Z,10.83
2023-02-17T10:11:34.912Z,10.64
2023-02-17T10:14:25.743Z,10.77
2023-02-17T10:16:57.373Z,10.85
2023-02-17T10:20:20.940Z,10.97
2023-02-17T10:22:57.925Z,10.92
2023-02-17T10:26:06.210Z,10.78
2023-02-17T10:28:53.567Z,10.91
2023-02-17T10:31:46.720Z,10.92
2023-02-17T10:34:22.949Z,11.16
2023-02-17T10:37:38.932Z,10.89
2023-02-17T10:40:16.264Z,11.08
2023-02-17T10:42:43.500Z,11.01
2023-02-17T10:45:27.519Z,10.93
2023-02-17T10:48:01.500Z,11.16
2023-02-17T10:50:29.012Z,11.22
2023-02-17T10:52:56.531Z,10.99
2023-02-17T10:55:34.049Z,11.15
2023-02-17T10:58:31.392Z,10.84
2023-02-17T11:00:58.788Z,10.61
2023-02-17T11:03:28.707Z,10.58
2023-02-17T11:06:01.821Z,10.48
2023-02-17T11:08:39.405Z,10.57
2023-02-17T11:11:18.960Z,10.39
2023-02-17T11:14:07.328Z,10.24
2023-02-17T11:16:44.454Z,10.28
2023-02-17T11:19:28.365Z,10.24
2023-02-17T11:21:58.494Z,10.16
2023-02-17T11:24:27.111Z,10.22
2023-02-17T11:27:04.131Z,10.10
2023-02-17T11:29:33.190Z,10.16
2023-02-17T11:32:12.334Z,10.45
2023-02-17T11:34:41.880Z,10.41
2023-02-17T11:37:11.663Z,10.60
2023-02-17T11:39:42.012Z,10.45
2023-02-17T11:42:30.622Z,10.63
2023-02-17T11:45:00.372Z,10.64
2023-02-17T11:47:48.055Z,10.67
2023-02-17T11:50:41.771Z,10.67
2023-02-17T11:53:09.093Z,10.74
2023-02-17T11:56:01.729Z,10.57
2023-02-17T11:58:54.265Z,10.59
2023-02-17T12:01:30.152Z,10.55
2023-02-17T12:04:25.105Z,10.32
2023-02-17T12:07:01.073Z,10.24
2023-02-17T12:09:51.074Z,10.06
2023-02-17T12:12:23.843Z,9.87
2023-02-17T12:15:08.493Z,9.94
2023-02-17T12:17:44.957Z,9.93
2023-02-17T12:20:18.140Z,9.83
2023-02-17T12:22:51.149Z,9.77
2023-02-17T12:25:37.864Z,9.77
2023-02-17T12:28:39.744Z,9.78
2023-02-17T12:31:16.575Z,9.95
2023-02-17T12:33:47.866Z,9.98
2023-02-17T12:36:18.492Z,9.89
2023-02-17T12:38:46.843Z,10.05
2023-02-17T12:41:40.472Z,10.18
2023-02-17T12:44:14.514Z,10.17
2023-02-17T12:46:44.607Z,10.24
2023-02-17T12:49:31.496Z,10.32
2023-02-17T12:52:08.954Z,10.50
2023-02-17T12:54:43.600Z,10.57
2023-02-17T12:57:10.662Z,10.63
2023-02-17T12:59:43.798Z,10.57
2023-02-17T13:02:14.063Z,10.68
2023-02-17T13:04:43.434Z,10.75
2023-02-17T13:07:27.333Z,10.75
2023-02-17T13:09:56.441Z,10.86
2023-02-17T13:12:23.461Z,10.84
2023-02-17T13:15:02.338Z,11.03
2023-02-17T13:17:34.112Z,11.11
2023-02-17T13:20:07.093Z,10.93
2023-02-17T13:22:34.561Z,11.03
2023-02-17T13:25:01.501Z,11.15
2023-02-17T13:27:28.537Z,11.07
2023-02-17T13:30:07.305Z,10.86
2023-02-17T13:32:36.661Z,10.79
2023-02-17T13:35:11.842Z,10.71
2023-02-17T13:37:44.027Z,10.72
2023-02-17T13:40:19.770Z,10.71
2023-02-17T13:42:49.055Z,11.01
2023-02-17T13:45:29.759Z,11.10
2023-02-17T13:48:15.637Z,11.27
2023-02-17T13:50:51.709Z,11.37
2023-02-17T13:53:40.162Z,11.28
2023-02-17T13:56:11.641Z,11.45
2023-02-17T13:58:42.093Z,11.52
2023-02-17T14:01:16.604Z,11.46
2023-02-17T14:03:50.863Z,11.33
2023-02-17T14:06:37.764Z,11.25
2023-02-17T14:09:23.059Z,11.25
2023-02-17T14:11:51.919Z,11.37
2023-02-17T14:14:20.810Z,11.46
2023-02-17T14:17:01.211Z,11.49
2023-02-17T14:19:30.200Z,11.53
2023-02-17T14:22:04.217Z,11.66
2023-02-17T14:24:36.851Z,11.60
2023-02-17T14:27:08.219Z,11.51
2023-02-17T14:29:46.647Z,11.52
2023-02-17T14:32:33.101Z,11.30
2023-02-17T14:35:28.770Z,11.29
2023-02-17T14:37:55.664Z,11.08
2023-02-17T14:40:25.226Z,10.97
2023-02-17T14:42:52.354Z,10.92
2023-02-17T14:45:19.658Z,10.88
2023-02-17T14:47:47.220Z,10.91
2023-02-17T14:50:16.211Z,10.96
2023-02-17T14:52:47.089Z,10.91
2023-02-17T14:55:22.176Z,10.85
2023-02-17T14:57:49.058Z,10.78
2023-02-17T15:00:16.529Z,10.77
2023-02-17T15:02:43.365Z,10.73
2023-02-17T15:05:10.716Z,10.49
2023-02-17T15:07:37.974Z,10.55
2023-02-17T15:10:31.262Z,10.63
2023-02-17T15:13:01.095Z,10.56
2023-02-17T15:15:28.251Z,10.60
2023-02-17T15:17:55.393Z,10.55
2023-02-17T15:20:22.521Z,10.38
2023-02-17T15:22:52.821Z,10.36
2023-02-17T15:25:24.962Z,10.42
2023-02-17T15:27:55.294Z,10.70
2023-02-17T15:30:22.952Z,10.54
2023-02-17T15:32:49.948Z,10.40
2023-02-17T15:35:20.730Z,10.37
2023-02-17T15:37:48.090Z,10.39
2023-02-17T15:40:18.258Z,10.43
2023-02-17T15:42:47.217Z,10.40
2023-02-17T15:45:18.372Z,10.45
2023-02-17T15:47:46.949Z,10.41
2023-02-17T15:50:20.695Z,10.38
2023-02-17T15:52:47.818Z,10.36
2023-02-17T15:55:15.606Z,10.37
2023-02-17T15:57:51.038Z,10.34
2023-02-17T16:00:32.404Z,10.33
2023-02-17T16:03:04.647Z,10.33
2023-02-17T16:05:34.234Z,10.58
2023-02-17T16:08:01.091Z,10.46
2023-02-17T16:10:28.729Z,10.34
2023-02-17T16:12:58.239Z,10.31
2023-02-17T16:15:27.426Z,10.29
2023-02-17T16:17:55.764Z,10.48
2023-02-17T16:20:34.630Z,10.27
2023-02-17T16:23:02.383Z,10.18
2023-02-17T16:25:30.139Z,10.16
2023-02-17T16:27:57.371Z,10.45
2023-02-17T16:30:32.062Z,10.24
2023-02-17T16:32:59.698Z,10.45
2023-02-17T16:35:33.651Z,10.37
2023-02-17T16:38:05.290Z,10.42
2023-02-17T16:40:34.753Z,10.22
2023-02-17T16:43:02.046Z,10.17
2023-02-17T16:45:34.060Z,10.29
2023-02-17T16:48:01.898Z,10.34
2023-02-17T16:50:36.089Z,10.16
2023-02-17T16:53:06.126Z,10.02
2023-02-17T16:55:36.057Z,10.12
2023-02-17T16:58:07.141Z,10.23
2023-02-17T17:00:34.262Z,10.05
2023-02-17T17:03:01.033Z,10.17
2023-02-17T17:05:29.583Z,10.43
2023-02-17T17:08:02.789Z,10.35
2023-02-17T17:10:31.757Z,10.19
2023-02-17T17:12:58.820Z,9.99
2023-02-17T17:15:26.675Z,9.93
2023-02-17T17:17:57.679Z,9.93
2023-02-17T17:20:35.314Z,9.77
2023-02-17T17:23:11.720Z,9.70
2023-02-17T17:25:41.547Z,9.78
2023-02-17T17:28:12.496Z,9.69
2023-02-17T17:30:41.721Z,10.07
2023-02-17T17:33:08.843Z,9.76
2023-02-17T17:35:37.924Z,9.70
2023-02-17T17:38:09.630Z,9.50
2023-02-17T17:40:48.352Z,9.45
2023-02-17T17:43:20.482Z,9.82
2023-02-17T17:45:50.364Z,9.80
2023-02-17T17:48:17.869Z,9.64
2023-02-17T17:50:49.802Z,9.91
2023-02-17T17:53:16.688Z,9.88
2023-02-17T17:55:43.857Z,10.02
2023-02-17T17:58:10.654Z,9.91
2023-02-17T18:00:37.775Z,9.69
2023-02-17T18:03:05.141Z,9.60
2023-02-17T18:05:32.921Z,9.82
2023-02-17T18:08:00.749Z,9.86
2023-02-17T18:10:27.999Z,9.96
2023-02-17T18:12:56.327Z,9.86
2023-02-17T18:15:23.429Z,9.91
2023-02-17T18:17:51.444Z,9.98
2023-02-17T18:20:19.014Z,9.72
2023-02-17T18:22:45.819Z,9.77
2023-02-17T18:25:12.958Z,9.69
2023-02-17T18:27:45.298Z,9.63
2023-02-17T18:30:16.207Z,9.65
2023-02-17T18:32:44.225Z,10.00
2023-02-17T18:35:12.309Z,9.73
2023-02-17T18:37:41.070Z,9.68
2023-02-17T18:40:16.074Z,9.64
2023-02-17T18:42:48.186Z,9.65
2023-02-17T18:45:18.377Z,9.80
2023-02-17T18:47:46.280Z,9.88
2023-02-17T18:50:15.810Z,9.90
2023-02-17T18:52:45.053Z,9.94
2023-02-17T18:55:13.918Z,9.87
2023-02-17T18:57:44.333Z,9.92
2023-02-17T19:00:15.520Z,10.05
2023-02-17T19:02:43.744Z,9.99
2023-02-17T19:05:11.756Z,9.79
2023-02-17T19:07:38.573Z,9.83
2023-02-17T19:10:06.715Z,9.88
2023-02-17T19:12:34.313Z,9.74
2023-02-17T19:15:01.505Z,9.80
2023-02-17T19:17:28.481Z,9.70
2023-02-17T19:19:55.812Z,9.66
2023-02-17T19:22:22.650Z,9.74
2023-02-17T19:24:54.859Z,9.72
2023-02-17T19:27:21.739Z,9.62
2023-02-17T19:29:48.847Z,9.57
2023-02-17T19:32:15.897Z,9.48
2023-02-17T19:34:43.028Z,9.75
2023-02-17T19:37:09.926Z,9.75
2023-02-17T19:39:37.015Z,9.71
2023-02-17T19:42:04.460Z,9.56
2023-02-17T19:44:32.161Z,9.49
2023-02-17T19:47:01.868Z,9.80
2023-02-17T19:49:28.961Z,9.82
2023-02-17T19:51:55.930Z,9.87
2023-02-17T19:54:24.336Z,9.82
2023-02-17T19:56:52.040Z,9.77
2023-02-17T19:59:19.449Z,9.73
2023-02-17T20:01:46.331Z,9.67
2023-02-17T20:04:13.517Z,9.59
2023-02-17T20:06:44.158Z,9.53
2023-02-17T20:09:18.426Z,9.46
2023-02-17T20:11:46.218Z,9.44
2023-02-17T20:14:13.692Z,9.38
2023-02-17T20:16:41.233Z,9.43
2023-02-17T20:19:08.456Z,9.43
2023-02-17T20:21:38.689Z,9.47
2023-02-17T20:24:06.236Z,9.39
2023-02-17T20:26:38.351Z,9.33
2023-02-17T20:29:05.479Z,9.24
2023-02-17T20:31:32.451Z,9.18
2023-02-17T20:34:02.966Z,9.12
2023-02-17T20:36:29.812Z,9.16
2023-02-17T20:38:56.900Z,9.16
2023-02-17T20:41:24.164Z,8.95
2023-02-17T20:43:52.132Z,8.87
2023-02-17T20:46:29.504Z,8.82
2023-02-17T20:48:56.803Z,8.74
2023-02-17T20:51:23.858Z,8.79
2023-02-17T20:53:51.353Z,8.63
2023-02-17T20:56:24.420Z,8.65
2023-02-17T20:58:52.355Z,8.79
2023-02-17T21:01:19.837Z,8.86
2023-02-17T21:03:47.231Z,8.98
2023-02-17T21:06:24.401Z,9.01
2023-02-17T21:08:54.335Z,9.11
2023-02-17T21:11:21.659Z,9.21
2023-02-17T21:13:50.037Z,9.24
2023-02-17T21:16:20.071Z,9.41
2023-02-17T21:18:47.516Z,9.51
2023-02-17T21:21:15.353Z,9.51
2023-02-17T21:23:42.527Z,9.57
2023-02-17T21:26:11.453Z,9.52
2023-02-17T21:28:38.866Z,9.55
2023-02-17T21:31:06.389Z,9.60
2023-02-17T21:33:33.848Z,9.45
2023-02-17T21:36:05.702Z,9.39
2023-02-17T21:38:32.862Z,9.37
2023-02-17T21:41:06.031Z,9.39
2023-02-17T21:43:52.106Z,9.37
2023-02-17T21:46:19.205Z,9.48
2023-02-17T21:48:46.261Z,9.34
2023-02-17T21:51:13.171Z,9.24
2023-02-17T21:53:40.586Z,9.25
2023-02-17T21:56:08.247Z,9.22
2023-02-17T21:58:35.747Z,9.40
2023-02-17T22:01:02.728Z,9.70
2023-02-17T22:03:29.825Z,9.96
2023-02-17T22:05:57.401Z,10.37
2023-02-17T22:08:24.653Z,10.51
2023-02-17T22:10:51.643Z,10.63
2023-02-17T22:13:18.763Z,10.68
2023-02-17T22:15:45.562Z,10.88
2023-02-17T22:18:12.682Z,10.90
2023-02-17T22:20:43.998Z,11.01
2023-02-17T22:23:11.133Z,11.14
2023-02-17T22:25:41.590Z,11.23
2023-02-17T22:28:10.567Z,11.17
2023-02-17T22:30:38.048Z,11.19
2023-02-17T22:33:05.160Z,11.32
2023-02-17T22:35:31.997Z,11.35
2023-02-17T22:37:59.733Z,11.34
2023-02-17T22:40:26.873Z,11.42
2023-02-17T22:42:54.005Z,11.48
2023-02-17T22:45:20.757Z,11.43
2023-02-17T22:47:47.818Z,11.49
2023-02-17T22:50:14.707Z,11.56
2023-02-17T22:52:41.816Z,11.63
2023-02-17T22:55:08.683Z,11.60
2023-02-17T22:57:35.785Z,11.82
2023-02-17T23:00:02.602Z,11.86
2023-02-17T23:02:29.673Z,12.16
2023-02-17T23:04:56.786Z,12.31
2023-02-17T23:07:26.673Z,12.46
2023-02-17T23:09:53.474Z,12.37
2023-02-17T23:12:20.814Z,12.52
2023-02-17T23:14:47.596Z,12.52
2023-02-17T23:17:15.588Z,12.54
2023-02-17T23:19:42.534Z,12.57
2023-02-17T23:22:16.287Z,12.59
2023-02-17T23:24:44.854Z,12.58
2023-02-17T23:27:12.867Z,12.57
2023-02-17T23:29:41.015Z,12.67
2023-02-17T23:32:08.164Z,12.61
2023-02-17T23:34:35.245Z,12.60
2023-02-17T23:37:02.373Z,12.59
2023-02-17T23:39:29.165Z,12.57
2023-02-17T23:41:56.365Z,12.58
2023-02-17T23:44:23.245Z,12.59
2023-02-17T23:46:50.285Z,12.56
2023-02-17T23:49:17.854Z,12.67
2023-02-17T23:51:46.916Z,12.69
2023-02-17T23:54:14.352Z,12.70
2023-02-17T23:56:41.604Z,12.77
2023-02-17T23:59:08.598Z,12.74
